Escanaba, MI (49829)

9:42 PM EDT on August 24, 2016 (GMT -0400)
Hurley Marine Lake Side Weather | | Change Station

Elev 607 ft 45.73 °N, 87.06 °W | Updated 2 seconds ago

Clear
Clear
72.4 °F
Feels Like 72.4 °F
N
5.0
Wind Variable Wind from WSW
Gusts 5.0 mph

Today
High -- | Low -- °F
--% Chance of Precip.
Yesterday
High -- | Low -- °F
Precip. -- in
Pressure 29.90 in
Visibility 10.0 miles
Clouds Clear
Dew Point 70 °F
Humidity 91%
Rainfall 0.04 in
Snow Depth Not available.
7:00 AM 8:40 PM
Waning Gibbous, 51% visible
METAR KESC 250056Z AUTO 23003KT 10SM CLR 22/21 A2984 RMK AO2 SLP124 T02170206
Pressure 29.90 in
Visibility 10.0 miles
Clouds Clear
Dew Point 70 °F
Humidity 91%
Rainfall 0.04 in
Snow Depth Not available.
7:00 AM 8:40 PM
Waning Gibbous, 51% visible
METAR KESC 250056Z AUTO 23003KT 10SM CLR 22/21 A2984 RMK AO2 SLP124 T02170206

10-Day Weather Forecast

Almanac

Astronomy

Aug. 24, 2016 Rise Set
Actual Time
Civil Twilight
Nautical Twilight
Astronomical Twilight
Moon
Length of Visible Light
Length of Day
Tomorrow will be .
, % of the Moon is Illuminated

Today's Extremes

State Highs State Lows

Community

WunderPhotos

Upload Photos

1,934,769 photos uploaded!

WunderBlog® & News

Nearby

Air Quality

  Air Quality AQ Index Pollutant
Not available.

Snow Depth

Station Depth Elevation

Earthquake Activity

City Distance Mag. Time & Date
Minimum magnitude displayed is 2.5.

Coastal Water Temperatures

Place Temperature

Stations

Nearby Weather Stations

Station Location Temp. Windchill Dew Point Humidity Wind Precip. Elev Updated Type
                   

Watches & Warnings

There are currently no watches in effect.